sensor_id;sensor_type;location;lat;lon;timestamp;pressure;altitude;pressure_sealevel;temperature;humidity
22572;BME280;11452;53.368;14.658;2022-09-17T00:03:07;99532.19;;;12.93;74.99
22572;BME280;11452;53.368;14.658;2022-09-17T00:08:14;99535.25;;;12.89;75.13
22572;BME280;11452;53.368;14.658;2022-09-17T00:13:19;99536.05;;;12.79;75.54
22572;BME280;11452;53.368;14.658;2022-09-17T00:18:25;99533.00;;;12.78;75.93
22572;BME280;11452;53.368;14.658;2022-09-17T00:23:30;99542.30;;;12.69;75.75
22572;BME280;11452;53.368;14.658;2022-09-17T00:28:36;99540.12;;;12.63;76.19
22572;BME280;11452;53.368;14.658;2022-09-17T00:33:42;99544.06;;;12.59;76.87
22572;BME280;11452;53.368;14.658;2022-09-17T00:38:53;99537.25;;;12.55;77.15
22572;BME280;11452;53.368;14.658;2022-09-17T00:44:49;99544.80;;;12.55;77.71
22572;BME280;11452;53.368;14.658;2022-09-17T00:49:43;99550.41;;;12.58;77.97
22572;BME280;11452;53.368;14.658;2022-09-17T00:54:21;99557.61;;;12.52;78.12
22572;BME280;11452;53.368;14.658;2022-09-17T00:59:27;99556.39;;;12.50;78.35
22572;BME280;11452;53.368;14.658;2022-09-17T01:04:33;99561.92;;;12.43;78.75
22572;BME280;11452;53.368;14.658;2022-09-17T01:15:34;99554.09;;;12.45;78.89
22572;BME280;11452;53.368;14.658;2022-09-17T01:31:34;99571.92;;;12.30;79.97
22572;BME280;11452;53.368;14.658;2022-09-17T01:42:16;99567.53;;;12.34;80.23
22572;BME280;11452;53.368;14.658;2022-09-17T01:47:25;99567.42;;;12.30;80.26
22572;BME280;11452;53.368;14.658;2022-09-17T01:52:32;99569.61;;;12.25;80.36
22572;BME280;11452;53.368;14.658;2022-09-17T01:57:53;99578.53;;;12.20;80.49
22572;BME280;11452;53.368;14.658;2022-09-17T02:03:11;99579.48;;;12.25;80.97
22572;BME280;11452;53.368;14.658;2022-09-17T02:08:21;99589.70;;;12.25;81.07
22572;BME280;11452;53.368;14.658;2022-09-17T02:13:32;99588.24;;;12.27;81.24
22572;BME280;11452;53.368;14.658;2022-09-17T02:18:48;99588.97;;;12.34;81.50
22572;BME280;11452;53.368;14.658;2022-09-17T02:29:11;99589.09;;;12.27;81.61
22572;BME280;11452;53.368;14.658;2022-09-17T02:34:15;99588.97;;;12.29;81.87
22572;BME280;11452;53.368;14.658;2022-09-17T02:39:21;99590.92;;;12.32;82.07
22572;BME280;11452;53.368;14.658;2022-09-17T02:44:53;99588.84;;;12.36;82.44
22572;BME280;11452;53.368;14.658;2022-09-17T03:00:49;99578.45;;;12.48;82.88
22572;BME280;11452;53.368;14.658;2022-09-17T03:05:56;99576.12;;;12.55;83.23
22572;BME280;11452;53.368;14.658;2022-09-17T03:11:02;99575.13;;;12.61;83.57
22572;BME280;11452;53.368;14.658;2022-09-17T03:16:09;99571.54;;;12.72;83.56
22572;BME280;11452;53.368;14.658;2022-09-17T03:21:15;99580.67;;;12.75;83.75
22572;BME280;11452;53.368;14.658;2022-09-17T03:26:20;99584.03;;;12.82;84.00
22572;BME280;11452;53.368;14.658;2022-09-17T03:31:26;99588.76;;;12.90;84.04
22572;BME280;11452;53.368;14.658;2022-09-17T03:36:32;99582.52;;;12.95;84.17
22572;BME280;11452;53.368;14.658;2022-09-17T03:41:38;99591.86;;;13.01;84.38
22572;BME280;11452;53.368;14.658;2022-09-17T03:46:43;99605.25;;;13.06;84.43
22572;BME280;11452;53.368;14.658;2022-09-17T03:51:49;99599.86;;;13.12;84.54
22572;BME280;11452;53.368;14.658;2022-09-17T03:56:55;99597.41;;;13.14;84.67
22572;BME280;11452;53.368;14.658;2022-09-17T04:02:00;99595.07;;;13.21;84.68
22572;BME280;11452;53.368;14.658;2022-09-17T04:07:06;99591.77;;;13.23;84.80
22572;BME280;11452;53.368;14.658;2022-09-17T04:12:12;99591.52;;;13.26;84.87
22572;BME280;11452;53.368;14.658;2022-09-17T04:17:17;99585.89;;;13.29;85.06
22572;BME280;11452;53.368;14.658;2022-09-17T04:22:23;99601.80;;;13.36;85.13
22572;BME280;11452;53.368;14.658;2022-09-17T04:27:29;99603.73;;;13.40;85.30
22572;BME280;11452;53.368;14.658;2022-09-17T04:32:34;99611.63;;;13.47;85.22
22572;BME280;11452;53.368;14.658;2022-09-17T04:37:40;99610.65;;;13.48;85.19
22572;BME280;11452;53.368;14.658;2022-09-17T04:42:45;99611.86;;;13.49;85.21
22572;BME280;11452;53.368;14.658;2022-09-17T04:47:51;99610.95;;;13.55;85.25
22572;BME280;11452;53.368;14.658;2022-09-17T04:52:56;99613.99;;;13.56;85.24
22572;BME280;11452;53.368;14.658;2022-09-17T04:58:02;99618.12;;;13.60;85.25
22572;BME280;11452;53.368;14.658;2022-09-17T05:03:08;99619.07;;;13.64;85.32
22572;BME280;11452;53.368;14.658;2022-09-17T05:08:13;99614.88;;;13.71;85.37
22572;BME280;11452;53.368;14.658;2022-09-17T05:13:19;99620.12;;;13.73;85.38
22572;BME280;11452;53.368;14.658;2022-09-17T05:18:24;99620.61;;;13.72;85.39
22572;BME280;11452;53.368;14.658;2022-09-17T05:23:30;99624.20;;;13.77;85.44
22572;BME280;11452;53.368;14.658;2022-09-17T05:28:35;99629.68;;;13.81;85.54
22572;BME280;11452;53.368;14.658;2022-09-17T05:33:40;99642.45;;;13.89;85.71
22572;BME280;11452;53.368;14.658;2022-09-17T05:38:46;99635.97;;;13.91;85.55
22572;BME280;11452;53.368;14.658;2022-09-17T05:43:51;99647.22;;;14.00;85.94
22572;BME280;11452;53.368;14.658;2022-09-17T05:48:57;99647.95;;;14.02;85.65
22572;BME280;11452;53.368;14.658;2022-09-17T05:54:03;99659.50;;;14.08;85.83
22572;BME280;11452;53.368;14.658;2022-09-17T05:59:08;99657.73;;;14.13;85.65
22572;BME280;11452;53.368;14.658;2022-09-17T06:04:14;99658.55;;;14.19;85.81
22572;BME280;11452;53.368;14.658;2022-09-17T06:09:21;99655.33;;;14.25;85.89
22572;BME280;11452;53.368;14.658;2022-09-17T06:14:26;99662.41;;;14.36;86.14
22572;BME280;11452;53.368;14.658;2022-09-17T06:19:32;99670.34;;;14.43;85.84
22572;BME280;11452;53.368;14.658;2022-09-17T06:24:37;99669.67;;;14.60;85.90
22572;BME280;11452;53.368;14.658;2022-09-17T06:29:43;99682.71;;;14.65;85.59
22572;BME280;11452;53.368;14.658;2022-09-17T06:34:48;99684.19;;;14.73;85.93
22572;BME280;11452;53.368;14.658;2022-09-17T06:39:54;99683.73;;;14.83;85.50
22572;BME280;11452;53.368;14.658;2022-09-17T06:44:59;99686.78;;;14.84;85.00
22572;BME280;11452;53.368;14.658;2022-09-17T06:50:07;99683.23;;;14.93;85.04
22572;BME280;11452;53.368;14.658;2022-09-17T06:55:12;99687.70;;;14.98;84.80
22572;BME280;11452;53.368;14.658;2022-09-17T07:00:19;99688.78;;;15.01;84.83
22572;BME280;11452;53.368;14.658;2022-09-17T07:05:25;99698.33;;;15.09;84.46
22572;BME280;11452;53.368;14.658;2022-09-17T07:10:31;99700.61;;;15.14;84.35
22572;BME280;11452;53.368;14.658;2022-09-17T07:15:37;99698.98;;;15.36;84.59
22572;BME280;11452;53.368;14.658;2022-09-17T07:20:42;99698.19;;;15.49;83.76
22572;BME280;11452;53.368;14.658;2022-09-17T07:25:56;99699.20;;;15.39;82.15
22572;BME280;11452;53.368;14.658;2022-09-17T07:31:03;99702.78;;;15.43;81.91
22572;BME280;11452;53.368;14.658;2022-09-17T07:36:11;99704.13;;;15.43;81.55
22572;BME280;11452;53.368;14.658;2022-09-17T07:41:17;99702.15;;;15.45;80.73
22572;BME280;11452;53.368;14.658;2022-09-17T07:46:23;99702.76;;;15.58;81.28
22572;BME280;11452;53.368;14.658;2022-09-17T07:51:28;99706.34;;;15.73;80.42
22572;BME280;11452;53.368;14.658;2022-09-17T07:56:33;99710.73;;;15.54;79.12
22572;BME280;11452;53.368;14.658;2022-09-17T08:01:39;99713.56;;;15.43;78.30
22572;BME280;11452;53.368;14.658;2022-09-17T08:06:46;99717.39;;;15.31;78.10
22572;BME280;11452;53.368;14.658;2022-09-17T08:11:54;99707.98;;;15.31;78.09
22572;BME280;11452;53.368;14.658;2022-09-17T08:17:00;99708.47;;;15.31;78.92
22572;BME280;11452;53.368;14.658;2022-09-17T08:22:05;99705.36;;;15.35;77.65
22572;BME280;11452;53.368;14.658;2022-09-17T08:27:11;99700.25;;;15.32;77.11
22572;BME280;11452;53.368;14.658;2022-09-17T08:32:17;99704.77;;;15.41;77.21
22572;BME280;11452;53.368;14.658;2022-09-17T08:37:22;99707.32;;;15.43;77.00
22572;BME280;11452;53.368;14.658;2022-09-17T08:42:40;99706.13;;;15.51;77.65
22572;BME280;11452;53.368;14.658;2022-09-17T08:47:46;99714.77;;;15.54;76.74
22572;BME280;11452;53.368;14.658;2022-09-17T08:58:56;99715.59;;;15.93;76.67
22572;BME280;11452;53.368;14.658;2022-09-17T09:09:24;99717.23;;;16.14;76.48
22572;BME280;11452;53.368;14.658;2022-09-17T09:14:47;99718.33;;;16.21;77.19
22572;BME280;11452;53.368;14.658;2022-09-17T09:19:44;99710.10;;;16.36;75.79
22572;BME280;11452;53.368;14.658;2022-09-17T09:30:09;99713.80;;;16.35;74.40
22572;BME280;11452;53.368;14.658;2022-09-17T09:35:19;99714.02;;;16.14;74.27
22572;BME280;11452;53.368;14.658;2022-09-17T09:40:42;99709.10;;;16.23;73.87
22572;BME280;11452;53.368;14.658;2022-09-17T09:46:26;99705.41;;;16.38;73.55
22572;BME280;11452;53.368;14.658;2022-09-17T09:57:02;99705.47;;;16.56;73.67
22572;BME280;11452;53.368;14.658;2022-09-17T10:02:11;99705.57;;;16.91;73.30
22572;BME280;11452;53.368;14.658;2022-09-17T10:07:17;99709.92;;;17.02;72.20
22572;BME280;11452;53.368;14.658;2022-09-17T10:12:22;99711.87;;;16.96;71.16
22572;BME280;11452;53.368;14.658;2022-09-17T10:17:28;99724.77;;;17.02;70.97
22572;BME280;11452;53.368;14.658;2022-09-17T10:22:41;99731.48;;;17.16;70.54
22572;BME280;11452;53.368;14.658;2022-09-17T10:27:43;99725.59;;;17.34;70.45
22572;BME280;11452;53.368;14.658;2022-09-17T10:33:14;99723.83;;;17.43;70.08
22572;BME280;11452;53.368;14.658;2022-09-17T10:38:29;99730.08;;;17.43;68.91
22572;BME280;11452;53.368;14.658;2022-09-17T10:43:35;99736.48;;;17.24;67.72
22572;BME280;11452;53.368;14.658;2022-09-17T10:48:43;99737.94;;;17.19;67.98
22572;BME280;11452;53.368;14.658;2022-09-17T10:54:01;99745.16;;;17.32;67.50
22572;BME280;11452;53.368;14.658;2022-09-17T10:59:26;99748.91;;;17.35;67.83
22572;BME280;11452;53.368;14.658;2022-09-17T11:25:56;99745.22;;;17.93;66.04
22572;BME280;11452;53.368;14.658;2022-09-17T11:36:42;99755.71;;;18.22;65.05
22572;BME280;11452;53.368;14.658;2022-09-17T11:41:46;99763.59;;;18.12;64.73
22572;BME280;11452;53.368;14.658;2022-09-17T11:46:56;99763.17;;;18.03;64.33
22572;BME280;11452;53.368;14.658;2022-09-17T11:52:31;99749.95;;;18.21;64.60
22572;BME280;11452;53.368;14.658;2022-09-17T11:57:33;99752.66;;;18.21;64.00
22572;BME280;11452;53.368;14.658;2022-09-17T12:08:28;99758.41;;;18.18;64.21
22572;BME280;11452;53.368;14.658;2022-09-17T12:13:53;99743.47;;;18.10;62.38
22572;BME280;11452;53.368;14.658;2022-09-17T12:19:38;99747.53;;;18.10;62.86
22572;BME280;11452;53.368;14.658;2022-09-17T12:24:39;99742.25;;;18.30;62.41
22572;BME280;11452;53.368;14.658;2022-09-17T12:35:19;99742.97;;;18.37;61.46
22572;BME280;11452;53.368;14.658;2022-09-17T12:51:42;99727.13;;;18.50;59.52
22572;BME280;11452;53.368;14.658;2022-09-17T12:56:57;99728.30;;;18.47;59.09
22572;BME280;11452;53.368;14.658;2022-09-17T13:02:07;99734.82;;;18.32;59.20
22572;BME280;11452;53.368;14.658;2022-09-17T13:18:15;99747.09;;;17.57;58.66
22572;BME280;11452;53.368;14.658;2022-09-17T13:23:40;99749.11;;;17.73;59.31
22572;BME280;11452;53.368;14.658;2022-09-17T13:28:50;99739.80;;;18.15;59.68
22572;BME280;11452;53.368;14.658;2022-09-17T13:34:00;99739.86;;;18.27;58.97
22572;BME280;11452;53.368;14.658;2022-09-17T13:39:09;99739.68;;;18.55;60.59
22572;BME280;11452;53.368;14.658;2022-09-17T13:44:16;99738.30;;;18.85;60.11
22572;BME280;11452;53.368;14.658;2022-09-17T13:49:24;99749.20;;;18.63;58.67
22572;BME280;11452;53.368;14.658;2022-09-17T13:54:36;99749.80;;;18.23;58.41
22572;BME280;11452;53.368;14.658;2022-09-17T13:59:51;99752.63;;;17.91;58.28
22572;BME280;11452;53.368;14.658;2022-09-17T14:04:54;99754.44;;;17.65;58.24
22572;BME280;11452;53.368;14.658;2022-09-17T14:15:35;99746.24;;;17.21;59.38
22572;BME280;11452;53.368;14.658;2022-09-17T14:20:43;99757.19;;;17.20;60.35
22572;BME280;11452;53.368;14.658;2022-09-17T14:25:53;99765.52;;;16.95;60.50
22572;BME280;11452;53.368;14.658;2022-09-17T14:31:01;99764.87;;;16.83;61.55
22572;BME280;11452;53.368;14.658;2022-09-17T14:36:10;99757.81;;;16.73;62.15
22572;BME280;11452;53.368;14.658;2022-09-17T14:41:26;99759.78;;;16.67;62.69
22572;BME280;11452;53.368;14.658;2022-09-17T14:46:41;99756.44;;;16.69;63.25
22572;BME280;11452;53.368;14.658;2022-09-17T14:51:48;99752.73;;;16.83;63.46
22572;BME280;11452;53.368;14.658;2022-09-17T14:56:59;99752.18;;;16.80;63.24
22572;BME280;11452;53.368;14.658;2022-09-17T15:02:42;99754.39;;;16.67;62.79
22572;BME280;11452;53.368;14.658;2022-09-17T15:07:20;99736.49;;;16.56;62.60
22572;BME280;11452;53.368;14.658;2022-09-17T15:12:28;99751.19;;;16.57;62.38
22572;BME280;11452;53.368;14.658;2022-09-17T15:17:34;99748.42;;;16.53;62.23
22572;BME280;11452;53.368;14.658;2022-09-17T15:22:40;99757.70;;;16.51;62.46
22572;BME280;11452;53.368;14.658;2022-09-17T15:27:47;99759.22;;;16.53;62.20
22572;BME280;11452;53.368;14.658;2022-09-17T15:32:54;99764.67;;;16.44;62.22
22572;BME280;11452;53.368;14.658;2022-09-17T15:38:23;99760.84;;;16.37;62.23
22572;BME280;11452;53.368;14.658;2022-09-17T15:43:29;99759.30;;;16.34;62.38
22572;BME280;11452;53.368;14.658;2022-09-17T15:48:36;99757.28;;;16.22;62.01
22572;BME280;11452;53.368;14.658;2022-09-17T15:53:50;99758.62;;;16.32;62.67
22572;BME280;11452;53.368;14.658;2022-09-17T15:58:59;99767.03;;;16.33;62.27
22572;BME280;11452;53.368;14.658;2022-09-17T16:04:17;99758.28;;;16.21;62.49
22572;BME280;11452;53.368;14.658;2022-09-17T16:14:55;99771.16;;;16.14;63.25
22572;BME280;11452;53.368;14.658;2022-09-17T16:19:55;99764.35;;;16.10;63.14
22572;BME280;11452;53.368;14.658;2022-09-17T16:25:04;99769.11;;;16.12;63.42
22572;BME280;11452;53.368;14.658;2022-09-17T16:30:19;99772.72;;;16.07;63.51
22572;BME280;11452;53.368;14.658;2022-09-17T16:35:20;99776.98;;;16.09;63.72
22572;BME280;11452;53.368;14.658;2022-09-17T16:40:26;99778.26;;;16.05;63.58
22572;BME280;11452;53.368;14.658;2022-09-17T16:45:32;99779.78;;;15.94;63.63
22572;BME280;11452;53.368;14.658;2022-09-17T16:50:39;99790.34;;;15.91;63.29
22572;BME280;11452;53.368;14.658;2022-09-17T16:55:45;99787.42;;;15.79;63.49
22572;BME280;11452;53.368;14.658;2022-09-17T17:00:50;99785.17;;;15.65;63.31
22572;BME280;11452;53.368;14.658;2022-09-17T17:05:56;99788.10;;;15.58;63.69
22572;BME280;11452;53.368;14.658;2022-09-17T17:11:01;99786.75;;;15.58;63.79
22572;BME280;11452;53.368;14.658;2022-09-17T17:16:12;99790.11;;;15.50;63.64
22572;BME280;11452;53.368;14.658;2022-09-17T17:21:18;99791.45;;;15.50;63.88
22572;BME280;11452;53.368;14.658;2022-09-17T17:26:24;99789.04;;;15.47;63.71
22572;BME280;11452;53.368;14.658;2022-09-17T17:31:30;99795.14;;;15.49;63.49
22572;BME280;11452;53.368;14.658;2022-09-17T17:36:35;99793.44;;;15.48;63.49
22572;BME280;11452;53.368;14.658;2022-09-17T17:41:41;99789.95;;;15.42;63.40
22572;BME280;11452;53.368;14.658;2022-09-17T17:46:46;99786.85;;;15.37;63.15
22572;BME280;11452;53.368;14.658;2022-09-17T17:51:52;99798.75;;;15.35;63.44
22572;BME280;11452;53.368;14.658;2022-09-17T17:56:57;99789.10;;;15.32;63.47
22572;BME280;11452;53.368;14.658;2022-09-17T18:02:03;99791.93;;;15.31;63.39
22572;BME280;11452;53.368;14.658;2022-09-17T18:07:09;99799.21;;;15.24;63.60
22572;BME280;11452;53.368;14.658;2022-09-17T18:12:14;99803.33;;;15.19;63.77
22572;BME280;11452;53.368;14.658;2022-09-17T18:17:22;99801.77;;;15.16;64.05
22572;BME280;11452;53.368;14.658;2022-09-17T18:22:27;99801.05;;;15.14;64.31
22572;BME280;11452;53.368;14.658;2022-09-17T18:27:33;99805.63;;;15.08;64.54
22572;BME280;11452;53.368;14.658;2022-09-17T18:32:38;99809.17;;;15.09;64.88
22572;BME280;11452;53.368;14.658;2022-09-17T18:37:43;99816.70;;;15.15;65.15
22572;BME280;11452;53.368;14.658;2022-09-17T18:42:49;99815.67;;;15.06;65.42
22572;BME280;11452;53.368;14.658;2022-09-17T18:47:54;99811.64;;;15.06;65.96
22572;BME280;11452;53.368;14.658;2022-09-17T18:53:00;99819.80;;;15.10;66.13
22572;BME280;11452;53.368;14.658;2022-09-17T18:58:06;99826.89;;;15.11;66.39
22572;BME280;11452;53.368;14.658;2022-09-17T19:03:11;99829.94;;;15.12;66.47
22572;BME280;11452;53.368;14.658;2022-09-17T19:08:21;99833.17;;;15.06;66.50
22572;BME280;11452;53.368;14.658;2022-09-17T19:13:32;99836.34;;;14.96;66.31
22572;BME280;11452;53.368;14.658;2022-09-17T19:18:38;99836.72;;;14.82;66.18
22572;BME280;11452;53.368;14.658;2022-09-17T19:23:46;99830.99;;;14.66;66.07
22572;BME280;11452;53.368;14.658;2022-09-17T19:28:53;99838.30;;;14.48;66.25
22572;BME280;11452;53.368;14.658;2022-09-17T19:34:02;99833.02;;;14.32;66.21
22572;BME280;11452;53.368;14.658;2022-09-17T19:39:08;99832.13;;;14.21;66.53
22572;BME280;11452;53.368;14.658;2022-09-17T19:44:15;99823.59;;;14.16;66.49
22572;BME280;11452;53.368;14.658;2022-09-17T19:49:21;99815.72;;;14.09;66.55
22572;BME280;11452;53.368;14.658;2022-09-17T19:54:27;99818.89;;;14.09;66.90
22572;BME280;11452;53.368;14.658;2022-09-17T19:59:33;99813.82;;;13.95;66.97
22572;BME280;11452;53.368;14.658;2022-09-17T20:04:38;99814.14;;;13.80;67.24
22572;BME280;11452;53.368;14.658;2022-09-17T20:09:44;99815.55;;;13.69;67.25
22572;BME280;11452;53.368;14.658;2022-09-17T20:14:52;99813.88;;;13.57;67.77
22572;BME280;11452;53.368;14.658;2022-09-17T20:19:58;99816.38;;;13.43;68.05
22572;BME280;11452;53.368;14.658;2022-09-17T20:25:04;99809.06;;;13.40;68.53
22572;BME280;11452;53.368;14.658;2022-09-17T20:30:11;99821.91;;;13.31;68.49
22572;BME280;11452;53.368;14.658;2022-09-17T20:35:17;99822.53;;;13.23;68.93
22572;BME280;11452;53.368;14.658;2022-09-17T20:40:22;99820.09;;;13.20;68.97
22572;BME280;11452;53.368;14.658;2022-09-17T20:45:28;99816.31;;;13.06;69.12
22572;BME280;11452;53.368;14.658;2022-09-17T20:50:34;99824.36;;;13.00;69.57
22572;BME280;11452;53.368;14.658;2022-09-17T20:55:39;99828.17;;;12.92;69.93
22572;BME280;11452;53.368;14.658;2022-09-17T21:00:45;99825.00;;;12.87;70.09
22572;BME280;11452;53.368;14.658;2022-09-17T21:05:50;99819.02;;;12.83;70.40
22572;BME280;11452;53.368;14.658;2022-09-17T21:10:56;99826.13;;;12.79;70.64
22572;BME280;11452;53.368;14.658;2022-09-17T21:16:02;99820.52;;;12.76;70.83
22572;BME280;11452;53.368;14.658;2022-09-17T21:21:16;99831.23;;;12.76;71.25
22572;BME280;11452;53.368;14.658;2022-09-17T21:26:18;99829.27;;;12.67;71.15
22572;BME280;11452;53.368;14.658;2022-09-17T21:31:26;99822.81;;;12.64;71.61
22572;BME280;11452;53.368;14.658;2022-09-17T21:36:36;99822.33;;;12.65;71.83
22572;BME280;11452;53.368;14.658;2022-09-17T21:41:43;99822.72;;;12.60;72.04
22572;BME280;11452;53.368;14.658;2022-09-17T21:46:49;99825.27;;;12.56;72.31
22572;BME280;11452;53.368;14.658;2022-09-17T21:51:56;99817.71;;;12.56;72.49
22572;BME280;11452;53.368;14.658;2022-09-17T21:57:01;99814.91;;;12.57;72.89
22572;BME280;11452;53.368;14.658;2022-09-17T22:02:07;99815.52;;;12.55;72.98
22572;BME280;11452;53.368;14.658;2022-09-17T22:07:12;99813.20;;;12.56;73.21
22572;BME280;11452;53.368;14.658;2022-09-17T22:12:18;99816.86;;;12.55;73.33
22572;BME280;11452;53.368;14.658;2022-09-17T22:17:23;99821.13;;;12.58;73.67
22572;BME280;11452;53.368;14.658;2022-09-17T22:22:29;99818.81;;;12.59;73.87
22572;BME280;11452;53.368;14.658;2022-09-17T22:27:34;99815.64;;;12.59;74.17
22572;BME280;11452;53.368;14.658;2022-09-17T22:32:40;99818.42;;;12.63;74.37
22572;BME280;11452;53.368;14.658;2022-09-17T22:37:45;99822.81;;;12.64;74.48
22572;BME280;11452;53.368;14.658;2022-09-17T22:42:51;99823.91;;;12.67;74.56
22572;BME280;11452;53.368;14.658;2022-09-17T22:47:56;99821.11;;;12.69;74.77
22572;BME280;11452;53.368;14.658;2022-09-17T22:53:01;99822.45;;;12.63;74.81
22572;BME280;11452;53.368;14.658;2022-09-17T22:58:07;99824.15;;;12.64;75.31
22572;BME280;11452;53.368;14.658;2022-09-17T23:03:13;99827.94;;;12.56;75.46
22572;BME280;11452;53.368;14.658;2022-09-17T23:08:18;99819.41;;;12.51;75.75
22572;BME280;11452;53.368;14.658;2022-09-17T23:13:23;99807.70;;;12.46;76.30
22572;BME280;11452;53.368;14.658;2022-09-17T23:18:30;99806.49;;;12.51;76.60
22572;BME280;11452;53.368;14.658;2022-09-17T23:23:36;99804.16;;;12.46;76.95
22572;BME280;11452;53.368;14.658;2022-09-17T23:28:42;99789.31;;;12.47;77.23
22572;BME280;11452;53.368;14.658;2022-09-17T23:33:47;99787.60;;;12.46;77.48
22572;BME280;11452;53.368;14.658;2022-09-17T23:38:54;99780.17;;;12.50;77.75
22572;BME280;11452;53.368;14.658;2022-09-17T23:44:03;99786.03;;;12.55;77.85
22572;BME280;11452;53.368;14.658;2022-09-17T23:49:12;99778.95;;;12.48;77.89
22572;BME280;11452;53.368;14.658;2022-09-17T23:54:18;99768.48;;;12.45;78.36
22572;BME280;11452;53.368;14.658;2022-09-17T23:59:23;99768.23;;;12.48;78.51
